Terminal Aerodrome Forecast
Issued by NWS Charleston, WV

Current Version | Previous Version | Text Only | Print | Product List | Glossary Off
Versions: 1 2 3 4 5 6 7 8 9 10 11 12 13 14 15 16 17 18 19 20 21

000
FTUS41 KRLX 272343
TAFHTS
TAF
KHTS 272343Z 2800/2824 00000KT P6SM SCT250
     FM280500 00000KT 4SM BR SCT250
     FM280600 VRB03KT 2SM BR SCT001
     FM281000 00000KT 1/4SM FG VV001
     FM281300 00000KT 4SM BR SCT001
     FM281400 00000KT P6SM SCT250
     FM281800 00000KT P6SM FEW050
     FM282200 00000KT P6SM SCT250=

USA.gov is the U.S. government's official web portal to all federal, state and local government web resources and services.